sensor_id;sensor_type;location;lat;lon;timestamp;P1;durP1;ratioP1;P2;durP2;ratioP2
54929;SDS011;40833;53.238;6.576;2023-07-13T00:02:23;13.02;;;2.50;;
54929;SDS011;40833;53.238;6.576;2023-07-13T00:04:49;10.10;;;1.45;;
54929;SDS011;40833;53.238;6.576;2023-07-13T00:07:16;13.85;;;1.48;;
54929;SDS011;40833;53.238;6.576;2023-07-13T00:09:45;13.95;;;1.50;;
54929;SDS011;40833;53.238;6.576;2023-07-13T00:12:22;15.10;;;2.00;;
54929;SDS011;40833;53.238;6.576;2023-07-13T00:14:50;11.73;;;1.52;;
54929;SDS011;40833;53.238;6.576;2023-07-13T00:17:16;9.15;;;1.42;;
54929;SDS011;40833;53.238;6.576;2023-07-13T00:19:42;15.65;;;1.58;;
54929;SDS011;40833;53.238;6.576;2023-07-13T00:22:08;15.73;;;1.65;;
54929;SDS011;40833;53.238;6.576;2023-07-13T00:24:33;14.88;;;1.80;;
54929;SDS011;40833;53.238;6.576;2023-07-13T00:27:01;12.55;;;1.73;;
54929;SDS011;40833;53.238;6.576;2023-07-13T00:29:26;16.40;;;1.50;;
54929;SDS011;40833;53.238;6.576;2023-07-13T00:31:52;8.27;;;1.20;;
54929;SDS011;40833;53.238;6.576;2023-07-13T00:34:18;14.35;;;1.92;;
54929;SDS011;40833;53.238;6.576;2023-07-13T00:36:43;9.32;;;1.85;;
54929;SDS011;40833;53.238;6.576;2023-07-13T00:39:09;12.73;;;1.70;;
54929;SDS011;40833;53.238;6.576;2023-07-13T00:41:35;10.15;;;1.52;;
54929;SDS011;40833;53.238;6.576;2023-07-13T00:44:02;10.20;;;1.60;;
54929;SDS011;40833;53.238;6.576;2023-07-13T00:46:29;11.85;;;2.00;;
54929;SDS011;40833;53.238;6.576;2023-07-13T00:48:58;10.00;;;1.90;;
54929;SDS011;40833;53.238;6.576;2023-07-13T00:51:30;10.57;;;1.85;;
54929;SDS011;40833;53.238;6.576;2023-07-13T00:54:03;12.48;;;1.90;;
54929;SDS011;40833;53.238;6.576;2023-07-13T00:56:32;11.80;;;1.50;;
54929;SDS011;40833;53.238;6.576;2023-07-13T00:58:58;10.30;;;1.73;;
54929;SDS011;40833;53.238;6.576;2023-07-13T01:01:26;14.05;;;1.65;;
54929;SDS011;40833;53.238;6.576;2023-07-13T01:03:52;8.50;;;2.22;;
54929;SDS011;40833;53.238;6.576;2023-07-13T01:06:19;15.93;;;2.13;;
54929;SDS011;40833;53.238;6.576;2023-07-13T01:08:45;10.83;;;1.77;;
54929;SDS011;40833;53.238;6.576;2023-07-13T01:11:11;12.57;;;2.43;;
54929;SDS011;40833;53.238;6.576;2023-07-13T01:13:37;12.10;;;2.40;;
54929;SDS011;40833;53.238;6.576;2023-07-13T01:16:04;14.00;;;2.53;;
54929;SDS011;40833;53.238;6.576;2023-07-13T01:18:38;18.37;;;2.20;;
54929;SDS011;40833;53.238;6.576;2023-07-13T01:21:04;12.97;;;1.83;;
54929;SDS011;40833;53.238;6.576;2023-07-13T01:23:30;8.83;;;1.90;;
54929;SDS011;40833;53.238;6.576;2023-07-13T01:25:57;14.63;;;1.93;;
54929;SDS011;40833;53.238;6.576;2023-07-13T01:28:24;10.57;;;2.30;;
54929;SDS011;40833;53.238;6.576;2023-07-13T01:30:52;16.23;;;1.90;;
54929;SDS011;40833;53.238;6.576;2023-07-13T01:33:19;16.37;;;1.93;;
54929;SDS011;40833;53.238;6.576;2023-07-13T01:35:45;11.63;;;1.67;;
54929;SDS011;40833;53.238;6.576;2023-07-13T01:38:14;19.63;;;2.57;;
54929;SDS011;40833;53.238;6.576;2023-07-13T01:40:41;10.87;;;1.83;;
54929;SDS011;40833;53.238;6.576;2023-07-13T01:43:07;11.10;;;1.90;;
54929;SDS011;40833;53.238;6.576;2023-07-13T01:45:33;14.10;;;2.10;;
54929;SDS011;40833;53.238;6.576;2023-07-13T01:47:59;8.50;;;2.23;;
54929;SDS011;40833;53.238;6.576;2023-07-13T01:50:25;12.27;;;1.83;;
54929;SDS011;40833;53.238;6.576;2023-07-13T01:52:51;12.10;;;1.87;;
54929;SDS011;40833;53.238;6.576;2023-07-13T01:55:16;10.33;;;1.97;;
54929;SDS011;40833;53.238;6.576;2023-07-13T01:57:42;13.90;;;2.73;;
54929;SDS011;40833;53.238;6.576;2023-07-13T02:00:09;10.17;;;2.27;;
54929;SDS011;40833;53.238;6.576;2023-07-13T02:02:36;7.57;;;1.73;;
54929;SDS011;40833;53.238;6.576;2023-07-13T02:05:02;8.87;;;1.27;;
54929;SDS011;40833;53.238;6.576;2023-07-13T02:07:28;10.17;;;1.33;;
54929;SDS011;40833;53.238;6.576;2023-07-13T02:09:53;10.00;;;1.50;;
54929;SDS011;40833;53.238;6.576;2023-07-13T02:12:19;8.37;;;1.30;;
54929;SDS011;40833;53.238;6.576;2023-07-13T02:14:44;10.83;;;1.83;;
54929;SDS011;40833;53.238;6.576;2023-07-13T02:17:10;8.90;;;1.30;;
54929;SDS011;40833;53.238;6.576;2023-07-13T02:19:36;7.23;;;1.40;;
54929;SDS011;40833;53.238;6.576;2023-07-13T02:22:02;8.63;;;1.40;;
54929;SDS011;40833;53.238;6.576;2023-07-13T02:24:28;8.20;;;1.53;;
54929;SDS011;40833;53.238;6.576;2023-07-13T02:26:54;8.47;;;1.63;;
54929;SDS011;40833;53.238;6.576;2023-07-13T02:29:20;7.10;;;1.50;;
54929;SDS011;40833;53.238;6.576;2023-07-13T02:31:45;9.53;;;1.10;;
54929;SDS011;40833;53.238;6.576;2023-07-13T02:34:11;7.50;;;1.17;;
54929;SDS011;40833;53.238;6.576;2023-07-13T02:36:37;7.63;;;1.20;;
54929;SDS011;40833;53.238;6.576;2023-07-13T02:39:03;7.67;;;1.37;;
54929;SDS011;40833;53.238;6.576;2023-07-13T02:41:30;5.20;;;0.73;;
54929;SDS011;40833;53.238;6.576;2023-07-13T02:43:57;5.60;;;0.90;;
54929;SDS011;40833;53.238;6.576;2023-07-13T02:48:56;7.63;;;1.30;;
54929;SDS011;40833;53.238;6.576;2023-07-13T02:51:22;6.30;;;1.07;;
54929;SDS011;40833;53.238;6.576;2023-07-13T02:53:48;5.70;;;1.07;;
54929;SDS011;40833;53.238;6.576;2023-07-13T02:56:13;8.13;;;1.70;;
54929;SDS011;40833;53.238;6.576;2023-07-13T02:58:39;10.70;;;2.20;;
54929;SDS011;40833;53.238;6.576;2023-07-13T03:01:08;11.07;;;1.60;;
54929;SDS011;40833;53.238;6.576;2023-07-13T03:03:35;10.37;;;1.47;;
54929;SDS011;40833;53.238;6.576;2023-07-13T03:06:02;8.33;;;1.50;;
54929;SDS011;40833;53.238;6.576;2023-07-13T03:08:30;13.90;;;2.80;;
54929;SDS011;40833;53.238;6.576;2023-07-13T03:11:03;11.77;;;2.50;;
54929;SDS011;40833;53.238;6.576;2023-07-13T03:13:31;14.47;;;3.10;;
54929;SDS011;40833;53.238;6.576;2023-07-13T03:15:56;16.90;;;3.47;;
54929;SDS011;40833;53.238;6.576;2023-07-13T03:18:22;14.67;;;3.40;;
54929;SDS011;40833;53.238;6.576;2023-07-13T03:20:51;17.93;;;2.60;;
54929;SDS011;40833;53.238;6.576;2023-07-13T03:23:17;14.83;;;2.80;;
54929;SDS011;40833;53.238;6.576;2023-07-13T03:25:43;13.53;;;2.40;;
54929;SDS011;40833;53.238;6.576;2023-07-13T03:28:10;19.00;;;3.10;;
54929;SDS011;40833;53.238;6.576;2023-07-13T03:30:36;17.80;;;3.30;;
54929;SDS011;40833;53.238;6.576;2023-07-13T03:33:02;15.07;;;2.90;;
54929;SDS011;40833;53.238;6.576;2023-07-13T03:35:28;11.73;;;2.50;;
54929;SDS011;40833;53.238;6.576;2023-07-13T03:37:54;22.73;;;3.57;;
54929;SDS011;40833;53.238;6.576;2023-07-13T03:40:20;14.07;;;3.30;;
54929;SDS011;40833;53.238;6.576;2023-07-13T03:42:46;19.90;;;2.90;;
54929;SDS011;40833;53.238;6.576;2023-07-13T03:45:12;14.53;;;2.53;;
54929;SDS011;40833;53.238;6.576;2023-07-13T03:47:37;13.63;;;3.20;;
54929;SDS011;40833;53.238;6.576;2023-07-13T03:50:03;16.70;;;2.87;;
54929;SDS011;40833;53.238;6.576;2023-07-13T03:52:29;12.90;;;2.30;;
54929;SDS011;40833;53.238;6.576;2023-07-13T03:54:55;16.33;;;2.53;;
54929;SDS011;40833;53.238;6.576;2023-07-13T03:57:21;20.37;;;3.60;;
54929;SDS011;40833;53.238;6.576;2023-07-13T03:59:47;11.90;;;2.40;;
54929;SDS011;40833;53.238;6.576;2023-07-13T04:02:13;16.93;;;2.97;;
54929;SDS011;40833;53.238;6.576;2023-07-13T04:04:38;12.83;;;2.43;;
54929;SDS011;40833;53.238;6.576;2023-07-13T04:07:06;12.13;;;2.40;;
54929;SDS011;40833;53.238;6.576;2023-07-13T04:09:33;12.73;;;2.83;;
54929;SDS011;40833;53.238;6.576;2023-07-13T04:11:59;12.53;;;2.47;;
54929;SDS011;40833;53.238;6.576;2023-07-13T04:14:25;18.87;;;3.93;;
54929;SDS011;40833;53.238;6.576;2023-07-13T04:16:51;16.40;;;2.20;;
54929;SDS011;40833;53.238;6.576;2023-07-13T04:19:17;13.30;;;2.10;;
54929;SDS011;40833;53.238;6.576;2023-07-13T04:21:42;15.97;;;2.83;;
54929;SDS011;40833;53.238;6.576;2023-07-13T04:24:08;14.07;;;2.73;;
54929;SDS011;40833;53.238;6.576;2023-07-13T04:26:34;15.43;;;3.53;;
54929;SDS011;40833;53.238;6.576;2023-07-13T04:29:01;18.03;;;2.77;;
54929;SDS011;40833;53.238;6.576;2023-07-13T04:31:29;14.03;;;2.87;;
54929;SDS011;40833;53.238;6.576;2023-07-13T04:33:55;12.47;;;2.20;;
54929;SDS011;40833;53.238;6.576;2023-07-13T04:36:21;18.00;;;2.77;;
54929;SDS011;40833;53.238;6.576;2023-07-13T04:38:47;16.83;;;2.63;;
54929;SDS011;40833;53.238;6.576;2023-07-13T04:41:14;19.27;;;2.67;;
54929;SDS011;40833;53.238;6.576;2023-07-13T04:43:40;19.63;;;2.87;;
54929;SDS011;40833;53.238;6.576;2023-07-13T04:46:07;20.63;;;3.30;;
54929;SDS011;40833;53.238;6.576;2023-07-13T04:48:34;18.63;;;3.60;;
54929;SDS011;40833;53.238;6.576;2023-07-13T04:51:00;18.93;;;3.07;;
54929;SDS011;40833;53.238;6.576;2023-07-13T04:53:27;16.70;;;3.10;;
54929;SDS011;40833;53.238;6.576;2023-07-13T04:55:52;12.27;;;3.30;;
54929;SDS011;40833;53.238;6.576;2023-07-13T04:58:18;18.00;;;3.33;;
54929;SDS011;40833;53.238;6.576;2023-07-13T05:00:44;14.73;;;2.70;;
54929;SDS011;40833;53.238;6.576;2023-07-13T05:03:10;15.90;;;3.10;;
54929;SDS011;40833;53.238;6.576;2023-07-13T05:05:35;14.50;;;3.00;;
54929;SDS011;40833;53.238;6.576;2023-07-13T05:08:01;15.47;;;2.53;;
54929;SDS011;40833;53.238;6.576;2023-07-13T05:10:27;15.90;;;2.90;;
54929;SDS011;40833;53.238;6.576;2023-07-13T05:12:53;17.43;;;3.17;;
54929;SDS011;40833;53.238;6.576;2023-07-13T05:15:20;15.17;;;3.07;;
54929;SDS011;40833;53.238;6.576;2023-07-13T05:17:47;18.43;;;2.83;;
54929;SDS011;40833;53.238;6.576;2023-07-13T05:20:13;20.40;;;2.60;;
54929;SDS011;40833;53.238;6.576;2023-07-13T05:22:39;14.93;;;2.73;;
54929;SDS011;40833;53.238;6.576;2023-07-13T05:25:05;18.27;;;3.00;;
54929;SDS011;40833;53.238;6.576;2023-07-13T05:27:32;18.17;;;2.80;;
54929;SDS011;40833;53.238;6.576;2023-07-13T05:29:59;14.50;;;2.73;;
54929;SDS011;40833;53.238;6.576;2023-07-13T05:32:25;13.77;;;2.57;;
54929;SDS011;40833;53.238;6.576;2023-07-13T05:34:51;17.57;;;2.67;;
54929;SDS011;40833;53.238;6.576;2023-07-13T05:37:17;12.27;;;2.63;;
54929;SDS011;40833;53.238;6.576;2023-07-13T05:39:43;13.70;;;2.60;;
54929;SDS011;40833;53.238;6.576;2023-07-13T05:42:09;14.43;;;2.70;;
54929;SDS011;40833;53.238;6.576;2023-07-13T05:44:35;12.63;;;2.50;;
54929;SDS011;40833;53.238;6.576;2023-07-13T05:47:00;13.73;;;2.47;;
54929;SDS011;40833;53.238;6.576;2023-07-13T05:49:26;13.00;;;2.33;;
54929;SDS011;40833;53.238;6.576;2023-07-13T05:51:52;13.57;;;2.10;;
54929;SDS011;40833;53.238;6.576;2023-07-13T05:54:18;14.77;;;2.50;;
54929;SDS011;40833;53.238;6.576;2023-07-13T05:56:43;14.70;;;2.60;;
54929;SDS011;40833;53.238;6.576;2023-07-13T05:59:09;14.47;;;2.40;;
54929;SDS011;40833;53.238;6.576;2023-07-13T06:01:35;12.00;;;2.50;;
54929;SDS011;40833;53.238;6.576;2023-07-13T06:04:00;11.93;;;2.10;;
54929;SDS011;40833;53.238;6.576;2023-07-13T06:06:26;12.27;;;1.70;;
54929;SDS011;40833;53.238;6.576;2023-07-13T06:08:52;15.43;;;2.90;;
54929;SDS011;40833;53.238;6.576;2023-07-13T06:11:19;10.37;;;1.80;;
54929;SDS011;40833;53.238;6.576;2023-07-13T06:13:47;10.00;;;1.73;;
54929;SDS011;40833;53.238;6.576;2023-07-13T06:16:13;13.50;;;2.50;;
54929;SDS011;40833;53.238;6.576;2023-07-13T06:18:40;12.13;;;2.10;;
54929;SDS011;40833;53.238;6.576;2023-07-13T06:21:07;14.73;;;2.00;;
54929;SDS011;40833;53.238;6.576;2023-07-13T06:23:40;12.77;;;1.67;;
54929;SDS011;40833;53.238;6.576;2023-07-13T06:26:06;15.73;;;2.23;;
54929;SDS011;40833;53.238;6.576;2023-07-13T06:28:34;13.93;;;2.33;;
54929;SDS011;40833;53.238;6.576;2023-07-13T06:31:00;10.37;;;2.83;;
54929;SDS011;40833;53.238;6.576;2023-07-13T06:33:26;12.30;;;2.07;;
54929;SDS011;40833;53.238;6.576;2023-07-13T06:35:52;12.33;;;2.07;;
54929;SDS011;40833;53.238;6.576;2023-07-13T06:38:19;8.57;;;1.50;;
54929;SDS011;40833;53.238;6.576;2023-07-13T06:40:45;13.17;;;1.30;;
54929;SDS011;40833;53.238;6.576;2023-07-13T06:43:11;8.65;;;1.65;;
54929;SDS011;40833;53.238;6.576;2023-07-13T06:45:41;5.72;;;1.35;;
54929;SDS011;40833;53.238;6.576;2023-07-13T06:48:10;7.55;;;1.27;;
54929;SDS011;40833;53.238;6.576;2023-07-13T06:50:37;7.75;;;1.70;;
54929;SDS011;40833;53.238;6.576;2023-07-13T06:53:02;4.70;;;0.98;;
54929;SDS011;40833;53.238;6.576;2023-07-13T06:55:28;7.25;;;1.35;;
54929;SDS011;40833;53.238;6.576;2023-07-13T06:57:54;11.60;;;1.33;;
54929;SDS011;40833;53.238;6.576;2023-07-13T07:00:20;10.00;;;1.33;;
54929;SDS011;40833;53.238;6.576;2023-07-13T07:02:46;7.30;;;2.15;;
54929;SDS011;40833;53.238;6.576;2023-07-13T07:05:11;5.90;;;1.80;;
54929;SDS011;40833;53.238;6.576;2023-07-13T07:07:37;9.18;;;1.02;;
54929;SDS011;40833;53.238;6.576;2023-07-13T07:10:03;4.40;;;1.00;;
54929;SDS011;40833;53.238;6.576;2023-07-13T07:12:29;9.18;;;1.30;;
54929;SDS011;40833;53.238;6.576;2023-07-13T07:14:54;6.55;;;0.90;;
54929;SDS011;40833;53.238;6.576;2023-07-13T07:17:20;8.82;;;1.00;;
54929;SDS011;40833;53.238;6.576;2023-07-13T07:19:46;7.97;;;1.20;;
54929;SDS011;40833;53.238;6.576;2023-07-13T07:22:11;5.43;;;0.90;;
54929;SDS011;40833;53.238;6.576;2023-07-13T07:24:37;9.45;;;1.20;;
54929;SDS011;40833;53.238;6.576;2023-07-13T07:27:03;5.72;;;0.73;;
54929;SDS011;40833;53.238;6.576;2023-07-13T07:29:29;6.85;;;0.75;;
54929;SDS011;40833;53.238;6.576;2023-07-13T07:31:55;10.18;;;1.13;;
54929;SDS011;40833;53.238;6.576;2023-07-13T07:34:20;5.38;;;0.80;;
54929;SDS011;40833;53.238;6.576;2023-07-13T07:36:46;5.43;;;1.10;;
54929;SDS011;40833;53.238;6.576;2023-07-13T07:39:12;5.88;;;0.60;;
54929;SDS011;40833;53.238;6.576;2023-07-13T07:41:37;3.72;;;0.70;;
54929;SDS011;40833;53.238;6.576;2023-07-13T07:44:03;5.60;;;0.82;;
54929;SDS011;40833;53.238;6.576;2023-07-13T07:46:29;5.28;;;0.57;;
54929;SDS011;40833;53.238;6.576;2023-07-13T07:48:55;2.47;;;0.70;;
54929;SDS011;40833;53.238;6.576;2023-07-13T07:51:21;2.65;;;0.50;;
54929;SDS011;40833;53.238;6.576;2023-07-13T07:53:47;2.85;;;0.52;;
54929;SDS011;40833;53.238;6.576;2023-07-13T07:56:14;3.03;;;0.50;;
54929;SDS011;40833;53.238;6.576;2023-07-13T07:58:41;5.95;;;0.90;;
54929;SDS011;40833;53.238;6.576;2023-07-13T08:01:08;8.32;;;1.10;;
54929;SDS011;40833;53.238;6.576;2023-07-13T08:03:33;5.50;;;1.05;;
54929;SDS011;40833;53.238;6.576;2023-07-13T08:05:59;10.50;;;1.77;;
54929;SDS011;40833;53.238;6.576;2023-07-13T08:08:25;8.50;;;1.73;;
54929;SDS011;40833;53.238;6.576;2023-07-13T08:10:51;4.18;;;0.60;;
54929;SDS011;40833;53.238;6.576;2023-07-13T08:13:17;2.95;;;0.40;;
54929;SDS011;40833;53.238;6.576;2023-07-13T08:15:43;4.65;;;1.00;;
54929;SDS011;40833;53.238;6.576;2023-07-13T08:18:09;3.17;;;0.52;;
54929;SDS011;40833;53.238;6.576;2023-07-13T08:20:38;3.88;;;0.57;;
54929;SDS011;40833;53.238;6.576;2023-07-13T08:23:04;2.00;;;0.57;;
54929;SDS011;40833;53.238;6.576;2023-07-13T08:25:30;3.38;;;0.65;;
54929;SDS011;40833;53.238;6.576;2023-07-13T08:27:56;3.03;;;0.68;;
54929;SDS011;40833;53.238;6.576;2023-07-13T08:30:21;2.83;;;0.50;;
54929;SDS011;40833;53.238;6.576;2023-07-13T08:32:47;3.97;;;0.63;;
54929;SDS011;40833;53.238;6.576;2023-07-13T08:35:14;2.75;;;0.57;;
54929;SDS011;40833;53.238;6.576;2023-07-13T08:37:41;5.63;;;0.77;;
54929;SDS011;40833;53.238;6.576;2023-07-13T08:40:08;3.90;;;0.80;;
54929;SDS011;40833;53.238;6.576;2023-07-13T08:42:36;5.03;;;1.05;;
54929;SDS011;40833;53.238;6.576;2023-07-13T08:45:14;4.40;;;0.90;;
54929;SDS011;40833;53.238;6.576;2023-07-13T08:47:49;4.05;;;1.10;;
54929;SDS011;40833;53.238;6.576;2023-07-13T08:50:55;3.30;;;0.90;;
54929;SDS011;40833;53.238;6.576;2023-07-13T08:53:41;7.10;;;1.02;;
54929;SDS011;40833;53.238;6.576;2023-07-13T08:56:19;8.73;;;1.10;;
54929;SDS011;40833;53.238;6.576;2023-07-13T08:58:49;7.78;;;1.55;;
54929;SDS011;40833;53.238;6.576;2023-07-13T09:04:21;6.25;;;0.85;;
54929;SDS011;40833;53.238;6.576;2023-07-13T09:12:17;6.93;;;1.20;;
54929;SDS011;40833;53.238;6.576;2023-07-13T09:14:48;8.38;;;1.40;;
54929;SDS011;40833;53.238;6.576;2023-07-13T09:20:02;8.30;;;1.35;;
54929;SDS011;40833;53.238;6.576;2023-07-13T09:22:40;7.40;;;1.20;;
54929;SDS011;40833;53.238;6.576;2023-07-13T09:25:21;4.13;;;0.90;;
54929;SDS011;40833;53.238;6.576;2023-07-13T09:27:55;6.90;;;1.30;;
54929;SDS011;40833;53.238;6.576;2023-07-13T09:30:30;3.85;;;1.20;;
54929;SDS011;40833;53.238;6.576;2023-07-13T09:33:01;6.28;;;1.25;;
54929;SDS011;40833;53.238;6.576;2023-07-13T09:35:27;7.07;;;0.70;;
54929;SDS011;40833;53.238;6.576;2023-07-13T09:44:26;5.05;;;0.60;;
54929;SDS011;40833;53.238;6.576;2023-07-13T09:46:38;6.35;;;0.68;;
54929;SDS011;40833;53.238;6.576;2023-07-13T09:49:09;7.15;;;0.52;;
54929;SDS011;40833;53.238;6.576;2023-07-13T09:51:36;7.38;;;0.60;;
54929;SDS011;40833;53.238;6.576;2023-07-13T09:54:04;6.05;;;1.05;;
54929;SDS011;40833;53.238;6.576;2023-07-13T09:56:30;2.03;;;0.60;;
54929;SDS011;40833;53.238;6.576;2023-07-13T09:58:57;5.03;;;0.80;;
54929;SDS011;40833;53.238;6.576;2023-07-13T10:01:35;3.70;;;0.63;;
54929;SDS011;40833;53.238;6.576;2023-07-13T10:04:09;2.83;;;0.73;;
54929;SDS011;40833;53.238;6.576;2023-07-13T10:06:39;4.45;;;0.40;;
54929;SDS011;40833;53.238;6.576;2023-07-13T10:09:08;3.05;;;0.50;;
54929;SDS011;40833;53.238;6.576;2023-07-13T10:11:35;1.38;;;0.30;;
54929;SDS011;40833;53.238;6.576;2023-07-13T10:14:03;3.17;;;0.50;;
54929;SDS011;40833;53.238;6.576;2023-07-13T10:16:40;3.83;;;0.35;;
54929;SDS011;40833;53.238;6.576;2023-07-13T10:24:23;3.30;;;0.68;;
54929;SDS011;40833;53.238;6.576;2023-07-13T10:27:01;5.43;;;0.30;;
54929;SDS011;40833;53.238;6.576;2023-07-13T10:29:55;0.88;;;0.13;;
54929;SDS011;40833;53.238;6.576;2023-07-13T10:32:30;1.52;;;0.40;;
54929;SDS011;40833;53.238;6.576;2023-07-13T10:34:55;3.75;;;0.60;;
54929;SDS011;40833;53.238;6.576;2023-07-13T10:37:24;3.70;;;0.40;;
54929;SDS011;40833;53.238;6.576;2023-07-13T10:39:52;4.43;;;0.55;;
54929;SDS011;40833;53.238;6.576;2023-07-13T10:42:39;0.45;;;0.20;;
54929;SDS011;40833;53.238;6.576;2023-07-13T10:45:14;4.57;;;0.40;;
54929;SDS011;40833;53.238;6.576;2023-07-13T10:47:46;8.88;;;0.50;;
54929;SDS011;40833;53.238;6.576;2023-07-13T10:50:23;3.40;;;0.30;;
54929;SDS011;40833;53.238;6.576;2023-07-13T10:52:50;2.30;;;0.30;;
54929;SDS011;40833;53.238;6.576;2023-07-13T10:55:32;4.78;;;0.20;;
54929;SDS011;40833;53.238;6.576;2023-07-13T10:58:13;2.13;;;0.20;;
54929;SDS011;40833;53.238;6.576;2023-07-13T11:03:34;3.08;;;0.45;;
54929;SDS011;40833;53.238;6.576;2023-07-13T11:08:57;2.50;;;0.20;;
54929;SDS011;40833;53.238;6.576;2023-07-13T11:14:01;2.05;;;0.30;;
54929;SDS011;40833;53.238;6.576;2023-07-13T11:16:36;1.42;;;0.30;;
54929;SDS011;40833;53.238;6.576;2023-07-13T11:24:28;2.50;;;0.30;;
54929;SDS011;40833;53.238;6.576;2023-07-13T11:26:55;3.28;;;0.22;;
54929;SDS011;40833;53.238;6.576;2023-07-13T11:29:36;3.70;;;0.20;;
54929;SDS011;40833;53.238;6.576;2023-07-13T11:32:20;4.70;;;0.30;;
54929;SDS011;40833;53.238;6.576;2023-07-13T11:34:48;3.05;;;0.43;;
54929;SDS011;40833;53.238;6.576;2023-07-13T11:37:15;6.05;;;0.75;;
54929;SDS011;40833;53.238;6.576;2023-07-13T11:39:44;4.25;;;0.40;;
54929;SDS011;40833;53.238;6.576;2023-07-13T11:42:13;1.70;;;0.40;;
54929;SDS011;40833;53.238;6.576;2023-07-13T11:44:49;4.15;;;0.50;;
54929;SDS011;40833;53.238;6.576;2023-07-13T11:47:20;4.05;;;0.38;;
54929;SDS011;40833;53.238;6.576;2023-07-13T11:49:54;3.17;;;0.68;;
54929;SDS011;40833;53.238;6.576;2023-07-13T11:52:34;2.95;;;0.60;;
54929;SDS011;40833;53.238;6.576;2023-07-13T11:55:03;3.60;;;0.38;;
54929;SDS011;40833;53.238;6.576;2023-07-13T11:57:39;3.75;;;0.50;;
54929;SDS011;40833;53.238;6.576;2023-07-13T12:00:14;3.30;;;0.40;;
54929;SDS011;40833;53.238;6.576;2023-07-13T12:02:48;4.32;;;0.30;;
54929;SDS011;40833;53.238;6.576;2023-07-13T12:05:16;4.07;;;0.52;;
54929;SDS011;40833;53.238;6.576;2023-07-13T12:07:44;3.55;;;0.30;;
54929;SDS011;40833;53.238;6.576;2023-07-13T12:12:55;3.53;;;0.30;;
54929;SDS011;40833;53.238;6.576;2023-07-13T12:15:44;2.63;;;0.30;;
54929;SDS011;40833;53.238;6.576;2023-07-13T12:18:15;5.13;;;0.50;;
54929;SDS011;40833;53.238;6.576;2023-07-13T12:20:44;6.53;;;0.40;;
54929;SDS011;40833;53.238;6.576;2023-07-13T12:23:32;2.80;;;0.47;;
54929;SDS011;40833;53.238;6.576;2023-07-13T12:26:04;6.47;;;0.40;;
54929;SDS011;40833;53.238;6.576;2023-07-13T12:28:35;4.70;;;0.70;;
54929;SDS011;40833;53.238;6.576;2023-07-13T12:31:04;2.20;;;0.82;;
54929;SDS011;40833;53.238;6.576;2023-07-13T12:33:32;4.85;;;0.60;;
54929;SDS011;40833;53.238;6.576;2023-07-13T12:36:03;2.97;;;0.50;;
54929;SDS011;40833;53.238;6.576;2023-07-13T12:38:31;1.80;;;0.50;;
54929;SDS011;40833;53.238;6.576;2023-07-13T12:40:57;1.02;;;0.40;;
54929;SDS011;40833;53.238;6.576;2023-07-13T12:43:23;5.93;;;0.57;;
54929;SDS011;40833;53.238;6.576;2023-07-13T12:45:55;3.65;;;0.38;;
54929;SDS011;40833;53.238;6.576;2023-07-13T12:48:26;3.65;;;0.75;;
54929;SDS011;40833;53.238;6.576;2023-07-13T12:50:52;3.85;;;0.40;;
54929;SDS011;40833;53.238;6.576;2023-07-13T12:53:20;1.95;;;0.30;;
54929;SDS011;40833;53.238;6.576;2023-07-13T12:58:17;2.17;;;0.35;;
54929;SDS011;40833;53.238;6.576;2023-07-13T13:00:58;1.45;;;0.47;;
54929;SDS011;40833;53.238;6.576;2023-07-13T13:08:41;3.53;;;0.77;;
54929;SDS011;40833;53.238;6.576;2023-07-13T13:11:08;4.07;;;0.50;;
54929;SDS011;40833;53.238;6.576;2023-07-13T13:25:49;9.38;;;1.00;;
54929;SDS011;40833;53.238;6.576;2023-07-13T13:28:19;3.00;;;0.65;;
54929;SDS011;40833;53.238;6.576;2023-07-13T13:30:46;2.83;;;0.63;;
54929;SDS011;40833;53.238;6.576;2023-07-13T13:33:15;4.38;;;0.70;;
54929;SDS011;40833;53.238;6.576;2023-07-13T13:35:42;3.80;;;0.93;;
54929;SDS011;40833;53.238;6.576;2023-07-13T13:38:15;2.92;;;1.00;;
54929;SDS011;40833;53.238;6.576;2023-07-13T13:40:44;6.93;;;1.30;;
54929;SDS011;40833;53.238;6.576;2023-07-13T13:43:17;4.80;;;0.90;;
54929;SDS011;40833;53.238;6.576;2023-07-13T13:45:45;7.28;;;0.80;;
54929;SDS011;40833;53.238;6.576;2023-07-13T13:48:15;6.20;;;1.05;;
54929;SDS011;40833;53.238;6.576;2023-07-13T13:50:47;6.68;;;1.75;;
54929;SDS011;40833;53.238;6.576;2023-07-13T13:53:13;8.02;;;0.95;;
54929;SDS011;40833;53.238;6.576;2023-07-13T13:55:39;5.47;;;0.98;;
54929;SDS011;40833;53.238;6.576;2023-07-13T13:58:07;5.22;;;1.00;;
54929;SDS011;40833;53.238;6.576;2023-07-13T14:00:36;4.35;;;0.70;;
54929;SDS011;40833;53.238;6.576;2023-07-13T14:06:20;5.30;;;0.70;;
54929;SDS011;40833;53.238;6.576;2023-07-13T14:08:46;6.78;;;1.13;;
54929;SDS011;40833;53.238;6.576;2023-07-13T14:20:41;7.07;;;1.00;;
54929;SDS011;40833;53.238;6.576;2023-07-13T14:23:06;6.70;;;0.70;;
54929;SDS011;40833;53.238;6.576;2023-07-13T14:25:32;1.48;;;0.47;;
54929;SDS011;40833;53.238;6.576;2023-07-13T14:27:58;10.63;;;0.88;;
54929;SDS011;40833;53.238;6.576;2023-07-13T14:30:26;4.35;;;0.90;;
54929;SDS011;40833;53.238;6.576;2023-07-13T14:32:51;4.32;;;0.60;;
54929;SDS011;40833;53.238;6.576;2023-07-13T14:35:20;13.15;;;1.67;;
54929;SDS011;40833;53.238;6.576;2023-07-13T14:40:27;4.95;;;0.68;;
54929;SDS011;40833;53.238;6.576;2023-07-13T14:46:28;7.05;;;0.95;;
54929;SDS011;40833;53.238;6.576;2023-07-13T14:48:59;3.70;;;0.77;;
54929;SDS011;40833;53.238;6.576;2023-07-13T14:51:30;3.28;;;0.73;;
54929;SDS011;40833;53.238;6.576;2023-07-13T14:54:00;3.38;;;0.52;;
54929;SDS011;40833;53.238;6.576;2023-07-13T14:56:28;6.65;;;0.77;;
54929;SDS011;40833;53.238;6.576;2023-07-13T14:58:54;3.67;;;0.55;;
54929;SDS011;40833;53.238;6.576;2023-07-13T15:01:20;3.40;;;0.80;;
54929;SDS011;40833;53.238;6.576;2023-07-13T15:03:47;2.50;;;0.70;;
54929;SDS011;40833;53.238;6.576;2023-07-13T15:06:15;5.35;;;0.57;;
54929;SDS011;40833;53.238;6.576;2023-07-13T15:08:41;5.35;;;0.88;;
54929;SDS011;40833;53.238;6.576;2023-07-13T15:11:10;5.65;;;1.05;;
54929;SDS011;40833;53.238;6.576;2023-07-13T15:13:39;3.90;;;0.95;;
54929;SDS011;40833;53.238;6.576;2023-07-13T15:16:28;4.60;;;0.75;;
54929;SDS011;40833;53.238;6.576;2023-07-13T15:18:53;5.35;;;0.70;;
54929;SDS011;40833;53.238;6.576;2023-07-13T15:21:20;4.60;;;0.88;;
54929;SDS011;40833;53.238;6.576;2023-07-13T15:23:48;3.80;;;0.77;;
54929;SDS011;40833;53.238;6.576;2023-07-13T15:26:16;3.22;;;0.80;;
54929;SDS011;40833;53.238;6.576;2023-07-13T15:28:43;4.45;;;0.85;;
54929;SDS011;40833;53.238;6.576;2023-07-13T15:31:22;4.72;;;0.80;;
54929;SDS011;40833;53.238;6.576;2023-07-13T15:33:50;3.58;;;0.63;;
54929;SDS011;40833;53.238;6.576;2023-07-13T15:36:18;4.72;;;1.02;;
54929;SDS011;40833;53.238;6.576;2023-07-13T15:38:45;3.95;;;0.88;;
54929;SDS011;40833;53.238;6.576;2023-07-13T15:43:42;5.70;;;0.85;;
54929;SDS011;40833;53.238;6.576;2023-07-13T15:46:08;5.75;;;0.80;;
54929;SDS011;40833;53.238;6.576;2023-07-13T15:48:34;4.93;;;1.05;;
54929;SDS011;40833;53.238;6.576;2023-07-13T15:51:00;5.15;;;0.77;;
54929;SDS011;40833;53.238;6.576;2023-07-13T15:53:28;4.65;;;0.82;;
54929;SDS011;40833;53.238;6.576;2023-07-13T15:55:57;3.47;;;0.68;;
54929;SDS011;40833;53.238;6.576;2023-07-13T15:58:23;4.45;;;1.08;;
54929;SDS011;40833;53.238;6.576;2023-07-13T16:00:50;4.55;;;0.77;;
54929;SDS011;40833;53.238;6.576;2023-07-13T16:03:16;4.78;;;1.25;;
54929;SDS011;40833;53.238;6.576;2023-07-13T16:05:44;8.90;;;1.27;;
54929;SDS011;40833;53.238;6.576;2023-07-13T16:08:19;2.72;;;0.93;;
54929;SDS011;40833;53.238;6.576;2023-07-13T16:10:50;7.55;;;1.85;;
54929;SDS011;40833;53.238;6.576;2023-07-13T16:13:18;6.20;;;1.42;;